• Join FlightAware (Why Join?)
  • Login
  • US Flag 
11:06PM EDT


 

Airport Tracker/Info


-or-


 

Live Flight TrackerFlight Track Log ✈ TAM8053 ✈ 20-Jun-2013 ✈ KMIA - SBCF / CNF

Flight Track Log - Related Links

Times and Time Zones

All times are in EDT time to prevent confusion due to time zone crossing. See the TAM8053 flight status page for this flight to view local times or setup timezone preferences in your user account.

Time Position Orientation Groundspeed Altitude Reporting Facility
EDT Latitude Longitude Course Direction KTS MPH feet Rate Location/Type
10:30AM 25.7983 -80.2631 79° East 178 205 1,000  Level Miami Center
10:31AM 25.8056 -80.2217 79° East 184 212 2,800 1,980 Climbing Miami Center
10:32AM 25.8094 -80.1503 87° East 256 295 4,700 2,160 Climbing Miami Center
10:33AM 25.8197 -80.0536 83° East 295 339 7,700 2,700 Climbing Miami Center
10:34AM 25.7986 -79.9700 106° East 283 326 10,500 2,040 Climbing Miami Center
10:35AM 25.7672 -79.8675 109° East 326 375 12,000 1,980 Climbing Miami Center
10:36AM 25.7278 -79.7558 111° Southeast 358 412 14,600 2,640 Climbing Miami Center
10:37AM 25.6861 -79.6442 112° Southeast 374 430 17,300 2,400 Climbing Miami Center
10:38AM 25.6422 -79.5281 113° Southeast 396 456 19,500 2,100 Climbing Miami Center
10:39AM 25.6006 -79.4050 111° Southeast 408 470 21,500 1,680 Climbing Miami Center
10:40AM 25.5547 -79.2772 112° Southeast 425 489 22,900 1,440 Climbing Miami Center
10:41AM 25.4708 -79.1697 131° Southeast 447 514 24,400 1,560 Climbing Miami Center
10:42AM 25.3889 -79.0578 129° Southeast 453 521 26,100 1,620 Climbing Miami Center
10:43AM 25.3028 -78.9483 131° Southeast 464 534 27,700 1,920 Climbing Miami Center
10:44AM 25.2142 -78.8456 134° Southeast 464 534 30,000 1,860 Climbing Miami Center
10:45AM 25.1258 -78.7364 132° Southeast 469 540 31,500 1,380 Climbing Miami Center
10:46AM 25.0394 -78.6250 131° Southeast 474 545 32,800 720 Climbing Miami Center
10:47AM 24.9531 -78.5136 131° Southeast 474 545 33,000 60 Climbing Miami Center
10:48AM 24.8664 -78.4050 131° Southeast 474 545 33,000  Level Miami Center
10:49AM 24.7797 -78.2986 132° Southeast 474 545 33,000  Level Miami Center
10:50AM 24.6931 -78.1900 131° Southeast 474 545 33,000  Level Miami Center
10:51AM 24.6039 -78.0794 132° Southeast 474 545 33,000  Level Miami Center
10:52AM 24.5169 -77.9711 131° Southeast 474 545 33,000  Level Miami Center
10:53AM 24.4281 -77.8608 132° Southeast 474 545 33,000  Level Miami Center
10:54AM 24.3408 -77.7531 132° Southeast 474 545 33,000  Level Miami Center
10:55AM 24.2536 -77.6428 131° Southeast 474 545 33,000  Level Miami Center
10:56AM 24.1664 -77.5353 132° Southeast 474 545 33,000  Level Miami Center
10:57AM 24.0811 -77.4303 132° Southeast 474 545 33,000  Level Miami Center
10:58AM 23.9917 -77.3206 132° Southeast 474 545 33,000  Level Miami Center
10:59AM 23.9064 -77.2111 130° Southeast 477 549 33,000  Level Miami Center
11:00AM 23.8231 -77.1111 132° Southeast 467 537 33,000  Level Miami Center
11:01AM 23.7353 -77.0042 132° Southeast 462 532 33,000  Level Miami Center
11:02AM 23.6475 -76.8975 132° Southeast 467 537 33,000  Level Miami Center
11:03AM 23.5597 -76.7886 131° Southeast 467 537 33,000  Level Miami Center
11:04AM 23.4719 -76.6822 132° Southeast 467 537 33,000  Level Miami Center
11:05AM 23.3839 -76.5783 133° Southeast 467 537 33,000  Level Miami Center
11:06AM 23.2961 -76.4697 131° Southeast 467 537 33,000  Level Miami Center
11:07AM 23.2058 -76.3639 133° Southeast 467 537 33,000  Level Miami Center
11:08AM 23.1178 -76.2558 132° Southeast 467 537 33,000  Level Miami Center
11:09AM 23.0272 -76.1500 133° Southeast 467 537 33,000  Level Miami Center
11:10AM 22.9411 -76.0444 132° Southeast 467 537 33,000  Level Miami Center
11:11AM 22.8528 -75.9392 132° Southeast 467 537 33,000  Level Miami Center
11:12AM 22.7622 -75.8317 132° Southeast 467 537 33,000  Level Miami Center
11:13AM 22.6736 -75.7267 132° Southeast 467 537 33,000  Level Miami Center
11:14AM 22.5850 -75.6194 132° Southeast 467 537 33,000  Level Miami Center
11:15AM 22.4944 -75.5144 133° Southeast 472 543 33,000  Level Miami Center
11:16AM 22.4056 -75.4100 133° Southeast 472 543 33,000  Level Miami Center
11:17AM 22.3147 -75.3031 133° Southeast 472 543 33,000  Level Miami Center
11:18AM 22.2261 -75.2033 134° Southeast 472 543 33,000  Level Miami Center
11:19AM 22.1392 -75.0967 131° Southeast 472 543 33,000  Level Miami Center
11:20AM 22.0439 -74.9994 137° Southeast 472 543 33,000  Level Miami Center
11:21AM 21.9425 -74.9025 138° Southeast 472 543 33,000  Level Miami Center
11:22AM 21.8431 -74.8100 139° Southeast 477 549 33,000  Level Miami Center
11:23AM 21.7394 -74.7153 140° Southeast 477 549 33,000  Level Miami Center
11:24AM 21.6525 -74.6253 136° Southeast 483 556 33,000  Level Miami Center
11:25AM 21.5511 -74.5308 139° Southeast 483 556 33,000  Level Miami Center
11:26AM 21.4536 -74.4367 138° Southeast 483 556 33,000  Level Miami Center
11:27AM 21.3517 -74.3428 139° Southeast 483 556 33,000  Level Miami Center
11:28AM 21.2542 -74.2511 139° Southeast 483 556 33,000  Level Miami Center
11:29AM 21.1544 -74.1572 139° Southeast 483 556 33,000  Level Miami Center
11:30AM 21.0547 -74.0636 139° Southeast 483 556 33,000  Level Miami Center
11:31AM 20.9528 -73.9681 139° Southeast 483 556 33,000  Level Miami Center
11:32AM 20.8592 -73.8789 138° Southeast 478 550 33,000  Level Miami Center
11:33AM 20.7531 -73.7836 140° Southeast 478 550 33,000  Level Miami Center
11:34AM 20.6531 -73.6883 138° Southeast 483 556 33,000  Level Miami Center
11:35AM 20.5531 -73.5956 139° Southeast 488 562 33,000  Level Miami Center
11:36AM 20.4508 -73.5006 139° Southeast 488 562 33,000  Level Miami Center
11:37AM 20.3486 -73.4078 140° Southeast 488 562 33,000  Level Miami Center
11:38AM 20.2444 -73.3131 140° Southeast 488 562 33,000  Level Miami Center
11:39AM 20.1336 -73.2122 139° Southeast 488 562 33,000  Level Miami Center
11:40AM 20.0272 -73.1225 142° Southeast 488 562 33,000  Level Miami Center
11:42AM 19.8898 -72.9932 142° Southeast  Level FlightAware Approximate
11:49AM 19.2056 -72.4372 142° Southeast  Level FlightAware Approximate
11:50AM 19.1077 -72.3581 143° Southeast  Level FlightAware Approximate
11:51AM 19.0098 -72.2792 143° Southeast  Level FlightAware Approximate
11:52AM 18.9118 -72.2003 143° Southeast  Level FlightAware Approximate
11:53AM 18.8138 -72.1215 143° Southeast  Level FlightAware Approximate
11:54AM 18.7158 -72.0428 143° Southeast  Level FlightAware Approximate
11:55AM 18.6178 -71.9642 143° Southeast  Level FlightAware Approximate
11:56AM 18.5268 -71.8768 137° Southeast  Level FlightAware Approximate
11:57AM 18.4258 -71.8030 146° Southeast  Level FlightAware Approximate
11:58AM 18.3238 -71.7303 145° Southeast  Level FlightAware Approximate
11:59AM 18.2241 -71.6543 144° Southeast  Level FlightAware Approximate
11:59AM 18.0350 -71.4790 144° Southeast 474 545 33,000  Level FlightAware
12:00PM 17.9790 -71.4120 131° Southeast 473 544 33,000  Level FlightAware
12:00PM 17.9320 -71.3560 131° Southeast 474 545 33,000  Level FlightAware
12:02PM 17.8220 -71.2240 131° Southeast 472 543 33,000  Level FlightAware
12:02PM 17.7760 -71.1690 131° Southeast 472 543 33,000  Level FlightAware
12:03PM 17.7220 -71.1030 131° Southeast 472 543 33,000  Level FlightAware
12:04PM 17.6770 -71.0490 131° Southeast 472 543 33,000  Level FlightAware
12:04PM 17.6170 -70.9770 131° Southeast 472 543 33,000  Level FlightAware
12:05PM 17.5730 -70.9240 131° Southeast 472 543 33,000  Level FlightAware
12:06PM 17.5210 -70.8610 131° Southeast 472 543 33,000  Level FlightAware
12:06PM 17.4740 -70.8050 131° Southeast 472 543 33,000  Level FlightAware
12:07PM 17.4160 -70.7340 131° Southeast 472 543 33,000  Level FlightAware
12:08PM 17.3600 -70.6670 131° Southeast 472 543 33,000  Level FlightAware
12:09PM 17.3140 -70.6110 131° Southeast 472 543 33,000  Level FlightAware
12:09PM 17.2700 -70.5580 131° Southeast 472 543 33,000  Level FlightAware
12:10PM 17.2130 -70.4890 131° Southeast 472 543 33,000  Level FlightAware
12:11PM 16.8860 -70.3490 158° South 484 557 33,000  Level FlightAware
12:12PM 16.8130 -70.3120 154° Southeast 484 557 33,000  Level FlightAware
12:13PM 16.7460 -70.2780 154° Southeast 484 557 33,000  Level FlightAware
12:13PM 16.6760 -70.2430 154° Southeast 484 557 33,000  Level FlightAware
12:14PM 16.6130 -70.2100 153° Southeast 484 557 33,000  Level FlightAware
12:15PM 16.5310 -70.1690 154° Southeast 484 557 33,000  Level FlightAware
12:15PM 16.4610 -70.1330 154° Southeast 484 557 33,000  Level FlightAware
12:16PM 16.3820 -70.0930 154° Southeast 484 557 33,000  Level FlightAware
12:17PM 16.3170 -70.0600 154° Southeast 484 557 33,000  Level FlightAware
12:17PM 16.2540 -70.0280 154° Southeast 484 557 33,000  Level FlightAware
12:18PM 16.1720 -69.9860 154° Southeast 484 557 33,000  Level FlightAware
12:19PM 16.1100 -69.9550 154° Southeast 484 557 33,000  Level FlightAware
12:19PM 16.0500 -69.9240 154° Southeast 484 557 33,000  Level FlightAware
12:20PM 15.9410 -69.8690 154° Southeast 484 557 33,000  Level FlightAware
12:21PM 15.8570 -69.8260 154° Southeast 484 557 33,000  Level FlightAware
12:24PM 15.6215 -69.6551 145° Southeast  Level FlightAware Approximate
12:24PM 15.3750 -69.4570 145° Southeast 470 541 33,000  Level FlightAware
12:25PM 15.5205 -69.5819 145° Southeast  Level FlightAware Approximate
12:26PM 15.2500 -69.3630 144° Southeast 470 541 33,000  Level FlightAware
12:26PM 15.2000 -69.3250 144° Southeast 470 541 33,000  Level FlightAware
12:27PM 15.1250 -69.2690 144° Southeast 470 541 33,000  Level FlightAware
12:28PM 15.0710 -69.2280 144° Southeast 470 541 33,000  Level FlightAware
12:29PM 14.9810 -69.1610 144° Southeast 470 541 33,000  Level FlightAware
12:29PM 14.9240 -69.1180 144° Southeast 470 541 33,000  Level FlightAware
12:30PM 14.8620 -69.0710 144° Southeast 470 541 33,000  Level FlightAware
12:31PM 14.7910 -69.0180 144° Southeast 470 541 33,000  Level FlightAware
12:32PM 14.7380 -68.9780 144° Southeast 470 541 33,000  Level FlightAware
12:32PM 14.6640 -68.9230 144° Southeast 470 541 33,000  Level FlightAware
12:33PM 14.6100 -68.8820 144° Southeast 470 541 33,000  Level FlightAware
12:34PM 14.5390 -68.8280 144° Southeast 470 541 33,000  Level FlightAware
12:34PM 14.4860 -68.7890 145° Southeast 470 541 33,000  Level FlightAware
12:36PM 14.1120 -68.5430 147° Southeast 465 535 33,000  Level FlightAware
12:37PM 14.0450 -68.4940 145° Southeast 465 535 33,000  Level FlightAware
12:38PM 13.9580 -68.4320 145° Southeast 463 533 33,000  Level FlightAware
12:38PM 13.8800 -68.3760 145° Southeast 463 533 33,000  Level FlightAware
12:39PM 13.8210 -68.3340 145° Southeast 464 534 33,000  Level FlightAware
12:40PM 13.7320 -68.2700 145° Southeast 465 535 33,000  Level FlightAware
12:41PM 13.6430 -68.2070 145° Southeast 465 535 33,000  Level FlightAware
12:42PM 13.5310 -68.1270 145° Southeast 466 536 33,000  Level FlightAware
12:42PM 13.4590 -68.0750 145° Southeast 466 536 33,000  Level FlightAware
12:43PM 13.3940 -68.0290 145° Southeast 467 537 33,000  Level FlightAware
12:44PM 13.3130 -67.9710 145° Southeast 468 539 33,000  Level FlightAware
12:44PM 13.2400 -67.9190 145° Southeast 468 539 33,000  Level FlightAware
12:45PM 13.1890 -67.8830 145° Southeast 468 539 33,000  Level FlightAware
12:46PM 13.1250 -67.8370 145° Southeast 469 540 33,000  Level FlightAware
12:47PM 13.0180 -67.7610 145° Southeast 468 539 33,000  Level FlightAware
12:47PM 12.9360 -67.7030 145° Southeast 468 539 33,000 600 Level FlightAware
12:48PM 12.8640 -67.6520 145° Southeast 464 534 33,900 1,380 Climbing FlightAware
12:49PM 12.7900 -67.5990 145° Southeast 462 532 34,900 780 Climbing FlightAware
12:49PM 12.7240 -67.5530 146° Southeast 460 529 35,000 60 Climbing FlightAware
12:50PM 12.6740 -67.5180 146° Southeast 460 529 35,000  Level FlightAware
12:51PM 12.5750 -67.4480 145° Southeast 462 532 35,000  Level FlightAware
12:51PM 12.5110 -67.4030 146° Southeast 461 531 35,000  Level FlightAware
12:52PM 12.4270 -67.3450 146° Southeast 462 532 35,000  Level FlightAware
12:53PM 12.3560 -67.2950 145° Southeast 462 532 35,000  Level FlightAware
12:54PM 12.2740 -67.2370 145° Southeast 462 532 35,000  Level FlightAware
12:54PM 12.1970 -67.1830 146° Southeast 462 532 35,000  Level FlightAware
12:55PM 12.1400 -67.1440 146° Southeast 461 531 35,000  Level FlightAware
12:56PM 12.0550 -67.0840 145° Southeast 461 531 35,000  Level FlightAware
12:56PM 11.9940 -67.0410 145° Southeast 461 531 35,000  Level FlightAware
12:57PM 11.8970 -66.9720 145° Southeast 461 531 35,000  Level FlightAware
12:58PM 11.8440 -66.9340 145° Southeast 461 531 35,000  Level FlightAware
12:59PM 11.7700 -66.8810 145° Southeast 461 531 35,000  Level FlightAware
12:59PM 11.7180 -66.8430 144° Southeast 461 531 35,000  Level FlightAware
01:00PM 11.6370 -66.7860 145° Southeast 461 531 35,000  Level FlightAware
01:01PM 11.5660 -66.7350 145° Southeast 461 531 35,000  Level FlightAware
01:02PM 11.5130 -66.6970 145° Southeast 461 531 35,000  Level FlightAware
01:02PM 11.4400 -66.6450 145° Southeast 461 531 35,000  Level FlightAware
01:03PM 11.3870 -66.6070 145° Southeast 461 531 35,000  Level FlightAware
01:04PM 11.2940 -66.5410 145° Southeast 461 531 35,000  Level FlightAware
01:05PM 11.2420 -66.5040 145° Southeast 461 531 35,000  Level FlightAware
01:05PM 11.1700 -66.4520 145° Southeast 461 531 35,000  Level FlightAware
01:06PM 11.1160 -66.4140 145° Southeast 461 531 35,000  Level FlightAware
01:09PM 10.8653 -66.2357 145° Southeast  Level FlightAware Approximate
01:10PM 10.7643 -66.1640 145° Southeast  Level FlightAware Approximate
01:11PM 10.6633 -66.0924 145° Southeast  Level FlightAware Approximate
01:12PM 10.5622 -66.0208 145° Southeast  Level FlightAware Approximate
01:13PM 10.4612 -65.9492 145° Southeast  Level FlightAware Approximate
01:14PM 10.3601 -65.8777 145° Southeast  Level FlightAware Approximate
01:15PM 10.2591 -65.8063 145° Southeast  Level FlightAware Approximate
01:16PM 10.1580 -65.7349 145° Southeast  Level FlightAware Approximate
01:17PM 10.0569 -65.6635 145° Southeast  Level FlightAware Approximate
01:18PM 9.9558 -65.5922 145° Southeast  Level FlightAware Approximate
01:19PM 9.8546 -65.5209 145° Southeast  Level FlightAware Approximate
01:20PM 9.7535 -65.4497 145° Southeast  Level FlightAware Approximate
01:21PM 9.6523 -65.3785 145° Southeast  Level FlightAware Approximate
01:22PM 9.5511 -65.3073 145° Southeast  Level FlightAware Approximate
01:23PM 9.4499 -65.2362 145° Southeast  Level FlightAware Approximate
01:24PM 9.3487 -65.1651 145° Southeast  Level FlightAware Approximate
01:25PM 9.2475 -65.0941 145° Southeast  Level FlightAware Approximate
01:26PM 9.1463 -65.0231 145° Southeast  Level FlightAware Approximate
01:27PM 9.0450 -64.9522 145° Southeast  Level FlightAware Approximate
01:28PM 8.9438 -64.8813 145° Southeast  Level FlightAware Approximate
01:29PM 8.8425 -64.8104 145° Southeast  Level FlightAware Approximate
01:30PM 8.7412 -64.7396 145° Southeast  Level FlightAware Approximate
01:31PM 8.6399 -64.6688 145° Southeast  Level FlightAware Approximate
01:32PM 8.5386 -64.5981 145° Southeast  Level FlightAware Approximate
01:33PM 8.4372 -64.5274 145° Southeast  Level FlightAware Approximate
01:34PM 8.3359 -64.4567 145° Southeast  Level FlightAware Approximate
01:35PM 8.2345 -64.3860 145° Southeast  Level FlightAware Approximate
01:36PM 8.1332 -64.3154 145° Southeast  Level FlightAware Approximate
01:37PM 8.0318 -64.2449 145° Southeast  Level FlightAware Approximate
01:38PM 7.9304 -64.1743 145° Southeast  Level FlightAware Approximate
01:39PM 7.8290 -64.1038 145° Southeast  Level FlightAware Approximate
01:40PM 7.7276 -64.0334 145° Southeast  Level FlightAware Approximate
01:41PM 7.6262 -63.9630 145° Southeast  Level FlightAware Approximate
01:42PM 7.5247 -63.8926 145° Southeast  Level FlightAware Approximate
01:43PM 7.4233 -63.8222 145° Southeast  Level FlightAware Approximate
01:44PM 7.3218 -63.7519 145° Southeast  Level FlightAware Approximate
01:45PM 7.2203 -63.6816 145° Southeast  Level FlightAware Approximate
01:46PM 7.1189 -63.6113 146° Southeast  Level FlightAware Approximate
01:47PM 7.0174 -63.5411 146° Southeast  Level FlightAware Approximate
01:48PM 6.9159 -63.4709 146° Southeast  Level FlightAware Approximate
01:49PM 6.8144 -63.4007 146° Southeast  Level FlightAware Approximate
01:50PM 6.7128 -63.3306 146° Southeast  Level FlightAware Approximate
01:51PM 6.6113 -63.2604 146° Southeast  Level FlightAware Approximate
01:52PM 6.5098 -63.1904 146° Southeast  Level FlightAware Approximate
01:53PM 6.4082 -63.1203 146° Southeast  Level FlightAware Approximate
01:54PM 6.3067 -63.0503 146° Southeast  Level FlightAware Approximate
01:55PM 6.2051 -62.9803 146° Southeast  Level FlightAware Approximate
01:56PM 6.1035 -62.9103 146° Southeast  Level FlightAware Approximate
01:57PM 6.0019 -62.8403 146° Southeast  Level FlightAware Approximate
01:58PM 5.9003 -62.7704 146° Southeast  Level FlightAware Approximate
01:59PM 5.7987 -62.7005 146° Southeast  Level FlightAware Approximate
02:00PM 5.6971 -62.6306 146° Southeast  Level FlightAware Approximate
02:01PM 5.5955 -62.5608 146° Southeast  Level FlightAware Approximate
02:02PM 5.4938 -62.4910 146° Southeast  Level FlightAware Approximate
02:03PM 5.3922 -62.4212 146° Southeast  Level FlightAware Approximate
02:04PM 5.2906 -62.3514 146° Southeast  Level FlightAware Approximate
02:05PM 5.1889 -62.2817 146° Southeast  Level FlightAware Approximate
02:06PM 5.0872 -62.2119 146° Southeast  Level FlightAware Approximate
02:07PM 4.9856 -62.1422 146° Southeast  Level FlightAware Approximate
02:08PM 4.8839 -62.0725 146° Southeast  Level FlightAware Approximate
02:09PM 4.7822 -62.0029 146° Southeast  Level FlightAware Approximate
02:10PM 4.6805 -61.9332 146° Southeast  Level FlightAware Approximate
02:11PM 4.5788 -61.8636 146° Southeast  Level FlightAware Approximate
02:12PM 4.4771 -61.7940 146° Southeast  Level FlightAware Approximate
02:13PM 4.3754 -61.7244 146° Southeast  Level FlightAware Approximate
02:14PM 4.2737 -61.6548 146° Southeast  Level FlightAware Approximate
02:15PM 4.1719 -61.5853 146° Southeast  Level FlightAware Approximate
02:16PM 4.0702 -61.5158 146° Southeast  Level FlightAware Approximate
02:17PM 3.9685 -61.4463 146° Southeast  Level FlightAware Approximate
02:18PM 3.8667 -61.3768 146° Southeast  Level FlightAware Approximate
02:19PM 3.7650 -61.3073 146° Southeast  Level FlightAware Approximate
02:20PM 3.6632 -61.2378 146° Southeast  Level FlightAware Approximate
02:21PM 3.5615 -61.1684 146° Southeast  Level FlightAware Approximate
02:22PM 3.4597 -61.0989 146° Southeast  Level FlightAware Approximate
02:23PM 3.3579 -61.0295 146° Southeast  Level FlightAware Approximate
02:24PM 3.2561 -60.9601 146° Southeast  Level FlightAware Approximate
02:25PM 3.1544 -60.8907 146° Southeast  Level FlightAware Approximate
02:26PM 3.0526 -60.8214 146° Southeast  Level FlightAware Approximate
02:27PM 2.9508 -60.7520 146° Southeast  Level FlightAware Approximate
02:28PM 2.8490 -60.6826 144° Southeast  Level FlightAware Approximate
02:29PM 2.7491 -60.6105 144° Southeast  Level FlightAware Approximate
02:30PM 2.6492 -60.5385 144° Southeast  Level FlightAware Approximate
02:31PM 2.5493 -60.4664 144° Southeast  Level FlightAware Approximate
02:32PM 2.4494 -60.3944 144° Southeast  Level FlightAware Approximate
02:33PM 2.3495 -60.3224 144° Southeast  Level FlightAware Approximate
02:34PM 2.2496 -60.2504 144° Southeast  Level FlightAware Approximate
02:35PM 2.1497 -60.1784 144° Southeast  Level FlightAware Approximate
02:36PM 2.0494 -60.1068 145° Southeast  Level FlightAware Approximate
02:37PM 1.9491 -60.0354 145° Southeast  Level FlightAware Approximate
02:38PM 1.8489 -59.9639 145° Southeast  Level FlightAware Approximate
02:39PM 1.7486 -59.8924 145° Southeast  Level FlightAware Approximate
02:40PM 1.6483 -59.8210 145° Southeast  Level FlightAware Approximate
02:41PM 1.5480 -59.7495 145° Southeast  Level FlightAware Approximate
02:42PM 1.4477 -59.6781 145° Southeast  Level FlightAware Approximate
02:43PM 1.3474 -59.6067 145° Southeast  Level FlightAware Approximate
02:44PM 1.2471 -59.5352 145° Southeast  Level FlightAware Approximate
02:45PM 1.1468 -59.4638 145° Southeast  Level FlightAware Approximate
02:46PM 1.0465 -59.3924 145° Southeast  Level FlightAware Approximate
02:47PM 0.9462 -59.3210 145° Southeast  Level FlightAware Approximate
02:48PM 0.8459 -59.2495 145° Southeast  Level FlightAware Approximate
02:49PM 0.7456 -59.1781 145° Southeast  Level FlightAware Approximate
02:50PM 0.6453 -59.1067 145° Southeast  Level FlightAware Approximate
02:51PM 0.5450 -59.0353 145° Southeast  Level FlightAware Approximate
02:52PM 0.4447 -58.9639 145° Southeast  Level FlightAware Approximate
02:53PM 0.3444 -58.8925 145° Southeast  Level FlightAware Approximate
02:54PM 0.2441 -58.8211 145° Southeast  Level FlightAware Approximate
02:55PM 0.1438 -58.7497 145° Southeast  Level FlightAware Approximate
02:56PM 0.0435 -58.6784 145° Southeast  Level FlightAware Approximate
02:57PM -0.0568 -58.6070 145° Southeast  Level FlightAware Approximate
02:58PM -0.1572 -58.5356 145° Southeast  Level FlightAware Approximate
02:58PM -1.2470 -58.6420 145° Southeast 453 521 37,000  Level FlightAware
02:58PM -1.3230 -58.6020 152° Southeast 453 521 37,000  Level FlightAware
02:59PM -1.4300 -58.5490 154° Southeast 454 522 37,000  Level FlightAware
03:00PM -1.4840 -58.5210 153° Southeast 454 522 37,000  Level FlightAware
03:01PM -1.5560 -58.4850 153° Southeast 454 522 37,000  Level FlightAware
03:01PM -1.6300 -58.4470 153° Southeast 454 522 37,000  Level FlightAware
03:02PM -1.7420 -58.3910 153° Southeast 456 525 37,000  Level FlightAware
03:03PM -1.8200 -58.3510 153° Southeast 456 525 37,000  Level FlightAware
03:03PM -1.8740 -58.3240 153° Southeast 456 525 37,000  Level FlightAware
03:04PM -1.9380 -58.2910 153° Southeast 456 525 37,000  Level FlightAware
03:05PM -2.0160 -58.2510 153° Southeast 456 525 37,000  Level FlightAware
03:05PM -2.0760 -58.2210 153° Southeast 456 525 37,000  Level FlightAware
03:06PM -2.1550 -58.1800 153° Southeast 456 525 37,000  Level FlightAware
03:07PM -2.2100 -58.1530 154° Southeast 456 525 37,000  Level FlightAware
03:08PM -2.2910 -58.1110 153° Southeast 456 525 37,000  Level FlightAware
03:08PM -2.3540 -58.0790 153° Southeast 456 525 37,000  Level FlightAware
03:09PM -2.4490 -58.0300 153° Southeast 456 525 37,000  Level FlightAware
03:10PM -2.5090 -58.0000 153° Southeast 456 525 37,000  Level FlightAware
03:11PM -2.6190 -57.9440 153° Southeast 456 525 37,000  Level FlightAware
03:12PM -2.6910 -57.9070 153° Southeast 456 525 37,000  Level FlightAware
03:14PM -2.8516 -57.7824 142° Southeast  Level Estimated
03:15PM -2.9489 -57.7069 142° Southeast  Level Estimated
03:16PM -3.0462 -57.6313 142° Southeast  Level Estimated
03:17PM -3.1435 -57.5558 142° Southeast  Level Estimated
03:18PM -3.2407 -57.4802 142° Southeast  Level Estimated
03:19PM -3.3380 -57.4046 142° Southeast  Level Estimated
03:20PM -3.4353 -57.3290 142° Southeast  Level Estimated
03:21PM -3.5326 -57.2534 142° Southeast  Level Estimated
03:22PM -3.6298 -57.1777 142° Southeast  Level Estimated
03:23PM -3.7271 -57.1021 142° Southeast  Level Estimated
03:24PM -3.8244 -57.0264 142° Southeast  Level Estimated
03:25PM -3.9216 -56.9507 142° Southeast  Level Estimated
03:26PM -4.0188 -56.8750 142° Southeast  Level Estimated
03:27PM -4.1161 -56.7993 142° Southeast  Level Estimated
03:28PM -4.2133 -56.7236 142° Southeast  Level Estimated
03:29PM -4.3105 -56.6478 142° Southeast  Level Estimated
03:30PM -4.4077 -56.5720 142° Southeast  Level Estimated
03:31PM -4.5049 -56.4962 142° Southeast  Level Estimated
03:32PM -4.6021 -56.4204 142° Southeast  Level Estimated
03:33PM -4.6993 -56.3446 142° Southeast  Level Estimated
03:34PM -4.7965 -56.2687 142° Southeast  Level Estimated
03:35PM -4.8937 -56.1928 142° Southeast  Level Estimated
03:36PM -4.9908 -56.1169 142° Southeast  Level Estimated
03:37PM -5.0880 -56.0410 142° Southeast  Level Estimated
03:38PM -5.1851 -55.9650 142° Southeast  Level Estimated
03:39PM -5.2822 -55.8891 142° Southeast  Level Estimated
03:40PM -5.3794 -55.8131 142° Southeast  Level Estimated
03:41PM -5.4765 -55.7371 142° Southeast  Level Estimated
03:42PM -5.5736 -55.6610 142° Southeast  Level Estimated
03:43PM -5.6707 -55.5849 142° Southeast  Level Estimated
03:44PM -5.7678 -55.5088 142° Southeast  Level Estimated
03:45PM -5.8649 -55.4327 142° Southeast  Level Estimated
03:46PM -5.9619 -55.3566 142° Southeast  Level Estimated
03:47PM -6.0590 -55.2804 142° Southeast  Level Estimated
03:48PM -6.1560 -55.2042 142° Southeast  Level Estimated
03:49PM -6.2531 -55.1280 142° Southeast  Level Estimated
03:50PM -6.3501 -55.0517 142° Southeast  Level Estimated
03:51PM -6.4471 -54.9754 142° Southeast  Level Estimated
03:52PM -6.5441 -54.8991 142° Southeast  Level Estimated
03:53PM -6.6411 -54.8227 142° Southeast  Level Estimated
03:54PM -6.7381 -54.7464 142° Southeast  Level Estimated
03:55PM -6.8350 -54.6699 142° Southeast  Level Estimated
03:56PM -6.9320 -54.5935 142° Southeast  Level Estimated
03:57PM -7.0289 -54.5170 142° Southeast  Level Estimated
03:58PM -7.1259 -54.4405 142° Southeast  Level Estimated
03:59PM -7.2228 -54.3640 142° Southeast  Level Estimated
04:00PM -7.3197 -54.2874 142° Southeast  Level Estimated
04:01PM -7.4166 -54.2108 142° Southeast  Level Estimated
04:02PM -7.5135 -54.1342 142° Southeast  Level Estimated
04:03PM -7.6103 -54.0575 142° Southeast  Level Estimated
04:04PM -7.7072 -53.9808 142° Southeast  Level Estimated
04:05PM -7.8040 -53.9041 142° Southeast  Level Estimated
04:06PM -7.9008 -53.8273 142° Southeast  Level Estimated
04:07PM -7.9976 -53.7505 142° Southeast  Level Estimated
04:08PM -8.0944 -53.6737 142° Southeast  Level Estimated
04:09PM -8.1912 -53.5968 142° Southeast  Level Estimated
04:10PM -8.2880 -53.5199 142° Southeast  Level Estimated
04:11PM -8.3847 -53.4429 142° Southeast  Level Estimated
04:12PM -8.4815 -53.3659 142° Southeast  Level Estimated
04:13PM -8.5782 -53.2889 142° Southeast  Level Estimated
04:14PM -8.6749 -53.2118 142° Southeast  Level Estimated
04:15PM -8.7716 -53.1347 142° Southeast  Level Estimated
04:16PM -8.8683 -53.0575 142° Southeast  Level Estimated
04:17PM -8.9649 -52.9804 142° Southeast  Level Estimated
04:18PM -9.0616 -52.9031 142° Southeast  Level Estimated
04:19PM -9.1582 -52.8258 142° Southeast  Level Estimated
04:20PM -9.2548 -52.7485 142° Southeast  Level Estimated
04:21PM -9.3514 -52.6712 142° Southeast  Level Estimated
04:22PM -9.4480 -52.5938 142° Southeast  Level Estimated
04:23PM -9.5445 -52.5163 142° Southeast  Level Estimated
04:24PM -9.6411 -52.4388 142° Southeast  Level Estimated
04:25PM -9.7376 -52.3613 142° Southeast  Level Estimated
04:26PM -9.8341 -52.2837 142° Southeast  Level Estimated
04:27PM -9.9306 -52.2061 142° Southeast  Level Estimated
04:28PM -10.0271 -52.1284 142° Southeast  Level Estimated
04:29PM -10.1235 -52.0507 142° Southeast  Level Estimated
04:30PM -10.2200 -51.9729 142° Southeast  Level Estimated
04:31PM -10.3164 -51.8951 142° Southeast  Level Estimated
04:32PM -10.4128 -51.8172 142° Southeast  Level Estimated
04:33PM -10.5092 -51.7393 142° Southeast  Level Estimated
04:34PM -10.6055 -51.6614 142° Southeast  Level Estimated
04:35PM -10.7019 -51.5834 141° Southeast  Level Estimated
04:36PM -10.7982 -51.5053 141° Southeast  Level Estimated
04:37PM -10.8945 -51.4272 141° Southeast  Level Estimated
04:38PM -10.9908 -51.3490 141° Southeast  Level Estimated
04:39PM -11.0870 -51.2708 141° Southeast  Level Estimated
04:40PM -11.1833 -51.1926 141° Southeast  Level Estimated
04:41PM -11.2795 -51.1142 141° Southeast  Level Estimated
04:42PM -11.3757 -51.0359 141° Southeast  Level Estimated
04:43PM -11.4719 -50.9575 141° Southeast  Level Estimated
04:44PM -11.5680 -50.8790 141° Southeast  Level Estimated
04:45PM -11.6642 -50.8005 141° Southeast  Level Estimated
04:46PM -11.7603 -50.7219 141° Southeast  Level Estimated
04:47PM -11.8564 -50.6433 141° Southeast  Level Estimated
04:48PM -11.9525 -50.5646 141° Southeast  Level Estimated
04:49PM -12.0485 -50.4858 141° Southeast  Level Estimated
04:50PM -12.1446 -50.4070 141° Southeast  Level Estimated
04:51PM -12.2406 -50.3282 141° Southeast  Level Estimated
04:52PM -12.3365 -50.2493 141° Southeast  Level Estimated
04:53PM -12.4325 -50.1703 141° Southeast  Level Estimated
04:54PM -12.5285 -50.0913 141° Southeast  Level Estimated
04:55PM -12.6244 -50.0122 141° Southeast  Level Estimated
04:56PM -12.7203 -49.9330 141° Southeast  Level Estimated
04:57PM -12.8161 -49.8538 141° Southeast  Level Estimated
04:58PM -12.9120 -49.7745 141° Southeast  Level Estimated
04:59PM -13.0078 -49.6952 141° Southeast  Level Estimated
05:00PM -13.1036 -49.6158 141° Southeast  Level Estimated
05:01PM -13.1994 -49.5364 141° Southeast  Level Estimated
05:02PM -13.2951 -49.4568 141° Southeast  Level Estimated
05:03PM -13.3909 -49.3773 141° Southeast  Level Estimated
05:04PM -13.4866 -49.2976 141° Southeast  Level Estimated
05:05PM -13.5822 -49.2179 141° Southeast  Level Estimated
05:06PM -13.6779 -49.1381 141° Southeast  Level Estimated
05:07PM -13.7735 -49.0583 141° Southeast  Level Estimated
05:07PM -14.7500 -49.1740 141° Southeast 473 544 37,000  Level FlightAware
05:08PM -13.8691 -48.9784 141° Southeast  Level Estimated
05:08PM -14.8180 -49.1090 137° Southeast 474 545 37,000  Level FlightAware
05:09PM -14.8830 -49.0480 138° Southeast 474 545 37,000  Level FlightAware
05:09PM -14.9550 -48.9790 137° Southeast 475 547 37,000  Level FlightAware
05:10PM -15.0270 -48.9100 137° Southeast 476 548 37,000  Level FlightAware
05:10PM -15.0600 -48.8780 137° Southeast 476 548 37,000  Level FlightAware
05:11PM -15.1660 -48.7770 137° Southeast 476 548 37,000  Level FlightAware
05:12PM -15.2300 -48.7160 137° Southeast 476 548 37,000  Level FlightAware
05:13PM -15.3300 -48.6200 137° Southeast 476 548 37,000  Level FlightAware
05:14PM -15.3900 -48.5620 137° Southeast 477 549 37,000  Level FlightAware
05:14PM -15.4640 -48.4920 138° Southeast 477 549 37,000  Level FlightAware
05:15PM -15.5310 -48.4270 137° Southeast 476 548 37,000  Level FlightAware
05:16PM -15.6050 -48.3560 137° Southeast 476 548 37,000  Level FlightAware
05:17PM -15.6700 -48.2930 137° Southeast 476 548 37,000  Level FlightAware
05:17PM -15.7380 -48.2280 137° Southeast 474 545 37,000  Level FlightAware
05:18PM -15.8050 -48.1630 137° Southeast 474 545 37,000  Level FlightAware
05:19PM -15.8720 -48.0980 137° Southeast 473 544 37,000  Level FlightAware
05:19PM -15.9310 -48.0420 138° Southeast 474 545 37,000  Level FlightAware
05:20PM -16.0100 -47.9660 137° Southeast 474 545 37,000  Level FlightAware
05:21PM -16.0670 -47.9100 137° Southeast 474 545 37,000  Level FlightAware
05:22PM -16.1460 -47.8340 137° Southeast 472 543 37,000  Level FlightAware
05:22PM -16.2120 -47.7690 137° Southeast 472 543 37,000  Level FlightAware
05:23PM -16.2730 -47.7110 138° Southeast 473 544 37,000  Level FlightAware
05:24PM -16.3280 -47.6570 137° Southeast 473 544 37,000  Level FlightAware
05:24PM -16.4110 -47.5760 137° Southeast 474 545 37,000  Level FlightAware
05:25PM -16.4490 -47.5390 137° Southeast 474 545 37,000  Level FlightAware
05:25PM -16.5190 -47.4710 137° Southeast 475 547 37,000  Level FlightAware
05:26PM -16.5870 -47.4040 137° Southeast 476 548 37,000  Level FlightAware
05:27PM -16.6390 -47.3520 136° Southeast 476 548 37,000  Level FlightAware
05:27PM -16.7020 -47.2890 136° Southeast 476 548 37,000  Level FlightAware
05:29PM -16.7990 -47.1930 137° Southeast 477 549 37,000  Level FlightAware
05:29PM -16.8480 -47.1440 136° Southeast 477 549 37,000  Level FlightAware
05:30PM -16.9260 -47.0650 136° Southeast 477 549 37,000  Level FlightAware
05:31PM -17.0400 -46.9560 138° Southeast 478 550 37,000  Level FlightAware
05:31PM -17.0960 -46.9010 137° Southeast 478 550 37,000  Level FlightAware
05:32PM -17.1630 -46.8330 136° Southeast 478 550 37,000  Level FlightAware
05:33PM -17.2390 -46.7590 137° Southeast 478 550 37,000  Level FlightAware
05:33PM -17.2790 -46.7190 136° Southeast 478 550 37,000  Level FlightAware
05:34PM -17.3560 -46.6420 136° Southeast 478 550 37,000  Level FlightAware
05:35PM -17.4140 -46.5840 136° Southeast 478 550 37,000  Level FlightAware
05:36PM -17.4690 -46.5280 136° Southeast 478 550 37,000  Level FlightAware
05:36PM -17.5450 -46.4530 137° Southeast 478 550 37,000  Level FlightAware
05:38PM -17.7080 -46.2900 136° Southeast 480 552 37,000  Level FlightAware
05:39PM -17.7780 -46.2190 136° Southeast 480 552 37,000  Level FlightAware
05:39PM -17.8430 -46.1530 136° Southeast 480 552 37,000  Level FlightAware
05:40PM -17.8940 -46.1020 136° Southeast 480 552 37,000  Level FlightAware
05:41PM -18.0090 -45.9880 137° Southeast 480 552 37,000  Level FlightAware
05:42PM -18.0920 -45.9040 136° Southeast 481 554 37,000  Level FlightAware
05:42PM -18.1540 -45.8410 136° Southeast 481 554 37,000  Level FlightAware
05:43PM -18.2130 -45.7810 136° Southeast 481 554 37,000  Level FlightAware
05:44PM -18.2920 -45.7020 136° Southeast 480 552 37,000  Level FlightAware
05:45PM -18.3570 -45.6370 137° Southeast 480 552 37,000 -180 Level FlightAware
05:46PM -18.4450 -45.5470 136° Southeast 476 548 36,800 -120 Descending FlightAware
05:46PM -18.5080 -45.4830 136° Southeast 476 548 36,800 -3,000 Level FlightAware
05:47PM -18.5790 -45.4110 136° Southeast 481 554 32,700 -4,620 Descending FlightAware
05:48PM -18.6760 -45.3120 136° Southeast 486 559 29,500 -2,880 Descending FlightAware
05:49PM -18.7370 -45.2470 135° Southeast 477 549 27,900 -2,520 Descending FlightAware
05:49PM -18.8000 -45.1790 134° Southeast 467 537 26,200 -2,460 Descending FlightAware
05:50PM -18.8950 -45.0740 134° Southeast 454 522 23,600 -2,400 Descending FlightAware
05:51PM -18.9600 -45.0030 134° Southeast 443 510 21,800 -2,400 Descending FlightAware
05:52PM -19.0160 -44.9430 135° Southeast 434 499 20,300 -2,280 Descending FlightAware
05:53PM -19.0910 -44.8600 134° Southeast 419 482 18,200 -2,280 Descending FlightAware
05:53PM -19.1450 -44.8020 135° Southeast 411 473 16,700 -2,280 Descending FlightAware
05:54PM -19.1980 -44.7430 134° Southeast 402 463 15,200 -1,800 Descending FlightAware
05:55PM -19.2510 -44.6840 134° Southeast 386 444 14,200 -960 Descending FlightAware
05:55PM -19.3000 -44.6290 133° Southeast 371 427 13,800 -1,500 Descending FlightAware
05:56PM -19.3280 -44.5950 131° Southeast 322 371 12,500 -1,500 Descending FlightAware
05:57PM -19.3510 -44.5160 107° East 297 342 11,800 -900 Descending FlightAware
05:57PM -19.3630 -44.4630 104° East 285 328 11,100 -1,320 Descending FlightAware
05:58PM -19.3790 -44.3930 104° East 280 322 9,900 -900 Descending FlightAware
05:59PM -19.3850 -44.3530 99° East 274 315 9,800 -120 Descending FlightAware
05:59PM -19.3890 -44.3260 99° East 274 315 9,800  Level FlightAware
06:00PM -19.3940 -44.2940 99° East 274 315 9,800  Level FlightAware
06:00PM -19.4000 -44.2540 99° East 274 315 9,800  Level FlightAware
06:03PM -19.5711 -44.0454 145° Southeast  Level Estimated
06:04PM -19.6167 -43.9667 145° Southeast  Level FlightAware Approximate
06:05PM -19.6338 -43.9689 145° Southeast  Level Estimated
06:06PM -19.6338 -43.9689 145° Southeast  Level Estimated
06:07PM -19.6338 -43.9689 145° Southeast  Level Estimated
06:08PM -19.6338 -43.9689 145° Southeast  Level Estimated
06:09PM -19.6338 -43.9689 145° Southeast  Level Estimated
06:10PM -19.6338 -43.9689 145° Southeast  Level Estimated
06:11PM -19.6338 -43.9689 145° Southeast  Level Estimated
06:12PM -19.6338 -43.9689 145° Southeast  Level Estimated
06:13PM -19.6338 -43.9689 145° Southeast  Level Estimated
06:14PM -19.6338 -43.9689 145° Southeast  Level Estimated
06:15PM -19.6338 -43.9689 145° Southeast  Level Estimated
06:16PM -19.6338 -43.9689 145° Southeast  Level Estimated
06:17PM -19.6338 -43.9689 145° Southeast  Level Estimated
06:18PM -19.6338 -43.9689 145° Southeast  Level Estimated
06:19PM -19.6338 -43.9689 145° Southeast  Level Estimated
06:20PM -19.6338 -43.9689 145° Southeast  Level Estimated
06:21PM -19.6338 -43.9689 145° Southeast  Level Estimated
06:22PM -19.6338 -43.9689 145° Southeast  Level Estimated
06:23PM -19.6338 -43.9689 145° Southeast  Level Estimated
06:24PM -19.6338 -43.9689 145° Southeast  Level Estimated
06:25PM -19.6338 -43.9689 145° Southeast  Level Estimated
06:26PM -19.6338 -43.9689 145° Southeast  Level Estimated
06:27PM -19.6338 -43.9689 145° Southeast  Level Estimated
06:28PM -19.6338 -43.9689 145° Southeast  Level Estimated
06:29PM -19.6338 -43.9689 145° Southeast  Level Estimated
06:30PM -19.6338 -43.9689 145° Southeast  Level Estimated
06:31PM -19.6338 -43.9689 145° Southeast  Level Estimated
06:32PM -19.6338 -43.9689 145° Southeast  Level Estimated
06:33PM -19.6338 -43.9689 145° Southeast  Level Estimated
06:34PM -19.6338 -43.9689 145° Southeast  Level Estimated
06:35PM -19.6338 -43.9689 145° Southeast  Level Estimated